createdAt,value
2018-05-16T00:01:00.175Z,0
2018-05-16T00:02:00.751Z,0
2018-05-16T00:03:01.327Z,0
2018-05-16T00:04:01.904Z,0
2018-05-16T00:05:02.481Z,0
2018-05-16T00:06:03.068Z,0
2018-05-16T00:07:03.643Z,0
2018-05-16T00:08:04.221Z,0
2018-05-16T00:09:04.806Z,0
2018-05-16T00:10:05.381Z,0
2018-05-16T00:11:05.970Z,0
2018-05-16T00:12:06.557Z,0
2018-05-16T00:13:07.135Z,0
2018-05-16T00:14:07.711Z,0
2018-05-16T00:15:08.289Z,0
2018-05-16T00:16:08.883Z,0
2018-05-16T00:17:09.454Z,0
2018-05-16T00:18:10.031Z,0
2018-05-16T00:19:10.607Z,0
2018-05-16T00:20:11.184Z,0
2018-05-16T00:21:11.771Z,0
2018-05-16T00:22:12.348Z,0
2018-05-16T00:23:12.924Z,0
2018-05-16T00:24:13.508Z,0
2018-05-16T00:25:14.076Z,0
2018-05-16T00:26:14.653Z,0
2018-05-16T00:27:15.228Z,0
2018-05-16T00:28:15.802Z,0
2018-05-16T00:29:16.379Z,0
2018-05-16T00:30:16.957Z,0
2018-05-16T00:31:17.533Z,0
2018-05-16T00:32:18.109Z,0
2018-05-16T00:33:18.685Z,0
2018-05-16T00:34:19.263Z,0
2018-05-16T00:35:19.838Z,0
2018-05-16T00:36:20.413Z,0
2018-05-16T00:37:20.990Z,0
2018-05-16T00:38:21.563Z,0
2018-05-16T00:39:22.150Z,0
2018-05-16T00:40:22.718Z,0
2018-05-16T00:41:23.303Z,0
2018-05-16T00:42:23.878Z,0
2018-05-16T00:43:24.454Z,0
2018-05-16T00:44:25.032Z,0
2018-05-16T00:45:25.608Z,0
2018-05-16T00:46:26.186Z,0
2018-05-16T00:47:26.761Z,0
2018-05-16T00:48:27.339Z,0
2018-05-16T00:49:27.912Z,0
2018-05-16T00:50:28.501Z,0
2018-05-16T00:51:29.079Z,0
2018-05-16T00:52:29.653Z,0
2018-05-16T00:53:30.232Z,0
2018-05-16T00:54:30.805Z,0
2018-05-16T00:55:31.381Z,0
2018-05-16T00:56:31.958Z,0
2018-05-16T00:57:32.543Z,0
2018-05-16T00:58:33.120Z,0
2018-05-16T00:59:33.697Z,0
2018-05-16T01:00:34.286Z,0
2018-05-16T01:01:34.862Z,0
2018-05-16T01:02:35.438Z,0
2018-05-16T01:03:36.016Z,0
2018-05-16T01:04:36.602Z,0
2018-05-16T01:05:37.179Z,0
2018-05-16T01:06:37.755Z,0
2018-05-16T01:07:38.329Z,0
2018-05-16T01:08:38.904Z,0
2018-05-16T01:09:39.480Z,0
2018-05-16T01:10:40.058Z,0
2018-05-16T01:11:40.637Z,0
2018-05-16T01:12:41.212Z,0
2018-05-16T01:13:41.788Z,0
2018-05-16T01:14:42.364Z,0
2018-05-16T01:15:42.940Z,0
2018-05-16T01:16:43.517Z,0
2018-05-16T01:17:44.091Z,0
2018-05-16T01:18:44.666Z,0
2018-05-16T01:19:45.242Z,0
2018-05-16T01:20:45.817Z,0
2018-05-16T01:21:46.404Z,0
2018-05-16T01:22:46.977Z,0
2018-05-16T01:23:47.552Z,0
2018-05-16T01:24:48.127Z,0
2018-05-16T01:25:48.704Z,0
2018-05-16T01:26:49.275Z,0
2018-05-16T01:27:49.856Z,0
2018-05-16T01:28:50.425Z,0
2018-05-16T01:29:50.999Z,0
2018-05-16T01:30:51.574Z,0
2018-05-16T01:31:52.148Z,0
2018-05-16T01:32:52.724Z,0
2018-05-16T01:33:53.301Z,0
2018-05-16T01:34:53.874Z,0
2018-05-16T01:35:54.459Z,0
2018-05-16T01:36:55.032Z,0
2018-05-16T01:37:55.617Z,0
2018-05-16T01:38:56.201Z,0
2018-05-16T01:39:56.826Z,0
2018-05-16T01:40:57.349Z,0
2018-05-16T01:41:57.926Z,0
2018-05-16T01:42:58.502Z,0
2018-05-16T01:43:59.078Z,0
2018-05-16T01:44:59.652Z,0
2018-05-16T01:46:00.226Z,0
2018-05-16T01:47:00.806Z,0
2018-05-16T01:48:01.376Z,0
2018-05-16T01:49:01.966Z,0
2018-05-16T01:50:02.536Z,0
2018-05-16T01:51:03.112Z,0
2018-05-16T01:52:03.685Z,0
2018-05-16T01:53:04.271Z,0
2018-05-16T01:54:04.845Z,0
2018-05-16T01:55:05.429Z,0
2018-05-16T01:56:06.009Z,0
2018-05-16T01:57:06.577Z,0
2018-05-16T01:58:07.152Z,0
2018-05-16T01:59:07.739Z,0
2018-05-16T02:00:08.317Z,0
2018-05-16T02:01:08.889Z,0
2018-05-16T02:02:09.473Z,0
2018-05-16T02:03:10.048Z,0
2018-05-16T02:04:10.622Z,0
2018-05-16T02:05:11.197Z,0
2018-05-16T02:06:11.776Z,0
2018-05-16T02:07:12.348Z,0
2018-05-16T02:08:12.924Z,0
2018-05-16T02:09:13.498Z,0
2018-05-16T02:10:14.073Z,0
2018-05-16T02:11:14.658Z,0
2018-05-16T02:12:15.232Z,0
2018-05-16T02:13:15.808Z,0
2018-05-16T02:14:16.383Z,0
2018-05-16T02:15:16.958Z,0
2018-05-16T02:16:17.542Z,0
2018-05-16T02:17:18.125Z,0
2018-05-16T02:18:18.704Z,0
2018-05-16T02:19:19.278Z,0
2018-05-16T02:20:19.854Z,0
2018-05-16T02:21:20.430Z,0
2018-05-16T02:22:21.005Z,0
2018-05-16T02:23:21.581Z,0
2018-05-16T02:24:22.164Z,0
2018-05-16T02:25:22.750Z,0
2018-05-16T02:26:23.324Z,0
2018-05-16T02:27:23.897Z,0
2018-05-16T02:28:24.482Z,0
2018-05-16T02:29:25.059Z,0
2018-05-16T02:30:25.632Z,0
2018-05-16T02:31:26.210Z,0
2018-05-16T02:32:26.783Z,0
2018-05-16T02:33:27.359Z,0
2018-05-16T02:34:27.932Z,0
2018-05-16T02:35:28.503Z,0
2018-05-16T02:36:29.078Z,0
2018-05-16T02:37:29.672Z,0
2018-05-16T02:38:30.240Z,0
2018-05-16T02:39:30.810Z,0
2018-05-16T02:40:31.384Z,0
2018-05-16T02:41:31.969Z,0
2018-05-16T02:42:32.545Z,0
2018-05-16T02:43:33.120Z,0
2018-05-16T02:44:33.701Z,0
2018-05-16T02:45:34.277Z,0
2018-05-16T02:46:34.863Z,0
2018-05-16T02:47:35.523Z,0
2018-05-16T02:48:36.011Z,0
2018-05-16T02:49:36.584Z,0
2018-05-16T02:50:37.155Z,0
2018-05-16T02:51:37.729Z,0
2018-05-16T02:52:38.301Z,0
2018-05-16T02:53:38.873Z,0
2018-05-16T02:54:39.446Z,0
2018-05-16T02:55:40.019Z,0
2018-05-16T02:56:40.593Z,0
2018-05-16T02:57:41.169Z,0
2018-05-16T02:58:41.739Z,0
2018-05-16T02:59:42.314Z,0
2018-05-16T03:00:42.886Z,0
2018-05-16T03:01:43.463Z,0
2018-05-16T03:02:44.033Z,0
2018-05-16T03:03:44.610Z,0
2018-05-16T03:04:45.243Z,0
2018-05-16T03:05:45.815Z,0
2018-05-16T03:06:46.391Z,0
2018-05-16T03:07:46.964Z,0
2018-05-16T03:08:47.538Z,0
2018-05-16T03:09:48.110Z,0
2018-05-16T03:10:48.686Z,0
2018-05-16T03:11:49.258Z,0
2018-05-16T03:12:49.834Z,0
2018-05-16T03:13:50.406Z,0
2018-05-16T03:14:50.980Z,0
2018-05-16T03:15:51.552Z,4
2018-05-16T03:16:52.126Z,4
2018-05-16T03:17:52.698Z,0
2018-05-16T03:18:53.272Z,0
2018-05-16T03:19:53.843Z,0
2018-05-16T03:20:54.416Z,4
2018-05-16T03:21:54.990Z,4
2018-05-16T03:22:55.565Z,0
2018-05-16T03:23:56.136Z,4
2018-05-16T03:24:56.711Z,4
2018-05-16T03:25:57.286Z,0
2018-05-16T03:26:57.861Z,4
2018-05-16T03:27:58.435Z,4
2018-05-16T03:28:59.019Z,4
2018-05-16T03:29:59.593Z,8
2018-05-16T03:31:00.168Z,4
2018-05-16T03:32:00.742Z,8
2018-05-16T03:33:01.325Z,8
2018-05-16T03:34:01.912Z,8
2018-05-16T03:35:02.473Z,12
2018-05-16T03:36:03.047Z,12
2018-05-16T03:37:03.622Z,12
2018-05-16T03:38:04.198Z,12
2018-05-16T03:39:04.773Z,12
2018-05-16T03:40:05.348Z,16
2018-05-16T03:41:05.922Z,20
2018-05-16T03:42:06.495Z,20
2018-05-16T03:43:07.080Z,20
2018-05-16T03:44:07.654Z,24
2018-05-16T03:45:08.229Z,20
2018-05-16T03:46:08.803Z,24
2018-05-16T03:47:09.376Z,28
2018-05-16T03:48:09.951Z,28
2018-05-16T03:49:10.524Z,32
2018-05-16T03:50:11.100Z,36
2018-05-16T03:51:11.685Z,36
2018-05-16T03:52:12.259Z,36
2018-05-16T03:53:12.834Z,40
2018-05-16T03:54:13.408Z,44
2018-05-16T03:55:13.984Z,48
2018-05-16T03:56:14.557Z,52
2018-05-16T03:57:15.131Z,52
2018-05-16T03:58:15.704Z,56
2018-05-16T03:59:16.278Z,60
2018-05-16T04:00:16.852Z,64
2018-05-16T04:01:17.426Z,64
2018-05-16T04:02:18.070Z,68
2018-05-16T04:03:18.576Z,72
2018-05-16T04:04:19.150Z,72
2018-05-16T04:05:19.723Z,76
2018-05-16T04:06:20.298Z,76
2018-05-16T04:07:20.872Z,84
2018-05-16T04:08:21.445Z,84
2018-05-16T04:09:22.020Z,88
2018-05-16T04:10:22.603Z,88
2018-05-16T04:11:23.176Z,96
2018-05-16T04:12:23.751Z,96
2018-05-16T04:13:24.339Z,100
2018-05-16T04:14:24.901Z,100
2018-05-16T04:15:25.477Z,108
2018-05-16T04:16:26.053Z,108
2018-05-16T04:17:26.627Z,112
2018-05-16T04:18:27.202Z,116
2018-05-16T04:19:27.776Z,120
2018-05-16T04:20:28.351Z,120
2018-05-16T04:21:28.927Z,124
2018-05-16T04:22:29.501Z,128
2018-05-16T04:23:30.086Z,132
2018-05-16T04:24:30.664Z,132
2018-05-16T04:25:31.238Z,136
2018-05-16T04:26:31.813Z,140
2018-05-16T04:27:32.388Z,144
2018-05-16T04:28:32.964Z,144
2018-05-16T04:29:33.549Z,148
2018-05-16T04:30:34.134Z,152
2018-05-16T04:31:34.708Z,156
2018-05-16T04:32:35.361Z,160
2018-05-16T04:33:35.861Z,160
2018-05-16T04:34:36.441Z,168
2018-05-16T04:35:37.152Z,168
2018-05-16T04:36:37.591Z,172
2018-05-16T04:37:38.166Z,176
2018-05-16T04:38:38.739Z,180
2018-05-16T04:39:39.314Z,184
2018-05-16T04:40:39.889Z,188
2018-05-16T04:41:40.474Z,192
2018-05-16T04:42:41.042Z,196
2018-05-16T04:43:41.631Z,200
2018-05-16T04:44:42.213Z,200
2018-05-16T04:45:42.791Z,208
2018-05-16T04:46:43.369Z,212
2018-05-16T04:47:43.945Z,216
2018-05-16T04:48:44.520Z,224
2018-05-16T04:49:45.096Z,224
2018-05-16T04:50:45.672Z,228
2018-05-16T04:51:46.251Z,232
2018-05-16T04:52:46.878Z,236
2018-05-16T04:53:47.401Z,244
2018-05-16T04:54:47.979Z,244
2018-05-16T04:55:48.566Z,248
2018-05-16T04:56:49.143Z,252
2018-05-16T04:57:49.720Z,260
2018-05-16T04:58:50.296Z,264
2018-05-16T04:59:50.872Z,268
2018-05-16T05:00:51.450Z,268
2018-05-16T05:01:52.026Z,272
2018-05-16T05:02:52.602Z,276
2018-05-16T05:03:53.176Z,280
2018-05-16T05:04:53.762Z,284
2018-05-16T05:05:54.341Z,284
2018-05-16T05:06:54.917Z,288
2018-05-16T05:07:55.492Z,292
2018-05-16T05:08:56.137Z,296
2018-05-16T05:09:56.651Z,300
2018-05-16T05:10:57.226Z,304
2018-05-16T05:11:57.802Z,304
2018-05-16T05:12:58.378Z,312
2018-05-16T05:13:58.956Z,312
2018-05-16T05:14:59.532Z,316
2018-05-16T05:16:00.108Z,316
2018-05-16T05:17:00.683Z,320
2018-05-16T05:18:01.271Z,324
2018-05-16T05:19:01.847Z,324
2018-05-16T05:20:02.426Z,328
2018-05-16T05:21:03.002Z,328
2018-05-16T05:22:03.591Z,332
2018-05-16T05:23:04.168Z,332
2018-05-16T05:24:04.822Z,336
2018-05-16T05:25:05.324Z,340
2018-05-16T05:26:05.902Z,340
2018-05-16T05:27:06.479Z,344
2018-05-16T05:28:07.066Z,348
2018-05-16T05:29:07.644Z,348
2018-05-16T05:30:08.220Z,352
2018-05-16T05:31:08.796Z,356
2018-05-16T05:32:09.371Z,360
2018-05-16T05:33:09.949Z,360
2018-05-16T05:34:10.536Z,364
2018-05-16T05:35:11.115Z,364
2018-05-16T05:36:11.688Z,368
2018-05-16T05:37:12.275Z,372
2018-05-16T05:38:12.849Z,372
2018-05-16T05:39:13.427Z,376
2018-05-16T05:40:14.005Z,384
2018-05-16T05:41:14.581Z,320
2018-05-16T05:42:15.157Z,400
2018-05-16T05:43:15.779Z,368
2018-05-16T05:44:16.314Z,380
2018-05-16T05:45:16.889Z,296
2018-05-16T05:46:17.465Z,308
2018-05-16T05:47:18.043Z,320
2018-05-16T05:48:18.618Z,424
2018-05-16T05:49:19.198Z,336
2018-05-16T05:50:19.782Z,328
2018-05-16T05:51:20.362Z,324
2018-05-16T05:52:20.940Z,316
2018-05-16T05:53:21.515Z,320
2018-05-16T05:54:22.092Z,320
2018-05-16T05:55:22.668Z,328
2018-05-16T05:56:23.246Z,332
2018-05-16T05:57:23.824Z,340
2018-05-16T05:58:24.411Z,348
2018-05-16T05:59:25.008Z,368
2018-05-16T06:00:25.564Z,384
2018-05-16T06:01:26.140Z,432
2018-05-16T06:02:26.717Z,520
2018-05-16T06:03:27.294Z,532
2018-05-16T06:04:27.873Z,396
2018-05-16T06:05:28.488Z,376
2018-05-16T06:06:29.039Z,392
2018-05-16T06:07:29.617Z,368
2018-05-16T06:08:30.194Z,360
2018-05-16T06:09:30.770Z,356
2018-05-16T06:10:31.348Z,348
2018-05-16T06:11:31.926Z,356
2018-05-16T06:12:32.505Z,368
2018-05-16T06:13:33.079Z,368
2018-05-16T06:14:33.656Z,376
2018-05-16T06:15:34.236Z,380
2018-05-16T06:16:34.812Z,424
2018-05-16T06:17:35.389Z,428
2018-05-16T06:18:35.964Z,508
2018-05-16T06:19:36.643Z,396
2018-05-16T06:20:37.129Z,364
2018-05-16T06:21:37.707Z,384
2018-05-16T06:22:38.287Z,416
2018-05-16T06:23:38.861Z,440
2018-05-16T06:24:39.438Z,460
2018-05-16T06:25:40.015Z,492
2018-05-16T06:26:40.592Z,680
2018-05-16T06:27:41.169Z,684
2018-05-16T06:28:41.747Z,572
2018-05-16T06:29:42.325Z,628
2018-05-16T06:30:42.912Z,652
2018-05-16T06:31:43.490Z,628
2018-05-16T06:32:44.138Z,612
2018-05-16T06:33:44.644Z,592
2018-05-16T06:34:45.223Z,592
2018-05-16T06:35:45.799Z,540
2018-05-16T06:36:46.378Z,408
2018-05-16T06:37:46.958Z,392
2018-05-16T06:38:47.545Z,412
2018-05-16T06:39:48.121Z,400
2018-05-16T06:40:48.698Z,400
2018-05-16T06:41:49.276Z,404
2018-05-16T06:42:49.862Z,420
2018-05-16T06:43:50.441Z,432
2018-05-16T06:44:51.019Z,432
2018-05-16T06:45:51.611Z,420
2018-05-16T06:46:52.172Z,460
2018-05-16T06:47:52.748Z,528
2018-05-16T06:48:53.326Z,520
2018-05-16T06:49:53.905Z,544
2018-05-16T06:50:54.481Z,484
2018-05-16T06:51:55.057Z,536
2018-05-16T06:52:55.635Z,592
2018-05-16T06:53:56.214Z,632
2018-05-16T06:54:56.790Z,580
2018-05-16T06:55:57.368Z,476
2018-05-16T06:56:57.946Z,524
2018-05-16T06:57:58.524Z,444
2018-05-16T06:58:59.102Z,500
2018-05-16T06:59:59.680Z,368
2018-05-16T07:01:00.256Z,352
2018-05-16T07:02:00.833Z,352
2018-05-16T07:03:01.420Z,368
2018-05-16T07:04:02.053Z,364
2018-05-16T07:05:02.572Z,360
2018-05-16T07:06:03.150Z,356
2018-05-16T07:07:03.731Z,352
2018-05-16T07:08:04.310Z,348
2018-05-16T07:09:04.883Z,336
2018-05-16T07:10:05.462Z,320
2018-05-16T07:11:06.047Z,312
2018-05-16T07:12:06.624Z,316
2018-05-16T07:13:07.201Z,324
2018-05-16T07:14:07.779Z,332
2018-05-16T07:15:08.359Z,336
2018-05-16T07:16:08.935Z,340
2018-05-16T07:17:09.526Z,348
2018-05-16T07:18:10.102Z,360
2018-05-16T07:19:10.677Z,380
2018-05-16T07:20:11.257Z,412
2018-05-16T07:21:11.836Z,444
2018-05-16T07:22:12.417Z,472
2018-05-16T07:23:12.989Z,500
2018-05-16T07:24:13.569Z,520
2018-05-16T07:25:14.144Z,512
2018-05-16T07:26:14.723Z,492
2018-05-16T07:27:15.310Z,492
2018-05-16T07:28:15.888Z,492
2018-05-16T07:29:16.467Z,492
2018-05-16T07:30:17.044Z,484
2018-05-16T07:31:17.621Z,472
2018-05-16T07:32:18.251Z,464
2018-05-16T07:33:18.778Z,456
2018-05-16T07:34:19.356Z,440
2018-05-16T07:35:19.949Z,420
2018-05-16T07:36:20.532Z,416
2018-05-16T07:37:21.110Z,432
2018-05-16T07:38:21.688Z,440
2018-05-16T07:39:22.265Z,436
2018-05-16T07:40:22.842Z,432
2018-05-16T07:41:23.423Z,432
2018-05-16T07:42:24.259Z,452
2018-05-16T07:43:24.836Z,448
2018-05-16T07:44:25.420Z,428
2018-05-16T07:45:25.999Z,408
2018-05-16T07:46:26.571Z,404
2018-05-16T07:47:27.148Z,400
2018-05-16T07:48:27.726Z,392
2018-05-16T07:49:28.304Z,388
2018-05-16T07:50:28.881Z,376
2018-05-16T07:51:29.458Z,360
2018-05-16T07:52:30.035Z,344
2018-05-16T07:53:30.612Z,344
2018-05-16T07:54:31.192Z,340
2018-05-16T07:55:31.778Z,332
2018-05-16T07:56:32.357Z,328
2018-05-16T07:57:32.935Z,312
2018-05-16T07:58:33.513Z,288
2018-05-16T07:59:34.100Z,268
2018-05-16T08:00:34.677Z,260
2018-05-16T08:01:35.253Z,268
2018-05-16T08:02:35.834Z,288
2018-05-16T08:03:36.417Z,316
2018-05-16T08:04:37.004Z,336
2018-05-16T08:05:37.581Z,348
2018-05-16T08:06:38.160Z,356
2018-05-16T08:07:38.737Z,356
2018-05-16T08:08:39.324Z,352
2018-05-16T08:09:39.902Z,352
2018-05-16T08:10:40.478Z,336
2018-05-16T08:11:41.056Z,328
2018-05-16T08:12:41.634Z,324
2018-05-16T08:13:42.212Z,328
2018-05-16T08:14:42.787Z,340
2018-05-16T08:15:43.364Z,356
2018-05-16T08:16:43.946Z,376
2018-05-16T08:17:44.521Z,400
2018-05-16T08:18:45.098Z,448
2018-05-16T08:19:45.685Z,476
2018-05-16T08:20:46.267Z,468
2018-05-16T08:21:46.853Z,464
2018-05-16T08:22:47.429Z,456
2018-05-16T08:23:48.006Z,452
2018-05-16T08:24:48.594Z,484
2018-05-16T08:25:49.171Z,520
2018-05-16T08:26:49.747Z,556
2018-05-16T08:27:50.323Z,572
2018-05-16T08:28:50.901Z,588
2018-05-16T08:29:51.491Z,620
2018-05-16T08:30:52.068Z,656
2018-05-16T08:31:52.646Z,676
2018-05-16T08:32:53.224Z,684
2018-05-16T08:33:53.807Z,672
2018-05-16T08:34:54.393Z,660
2018-05-16T08:35:54.968Z,668
2018-05-16T08:36:55.543Z,692
2018-05-16T08:37:56.123Z,700
2018-05-16T08:38:56.708Z,700
2018-05-16T08:39:57.285Z,696
2018-05-16T08:40:57.864Z,768
2018-05-16T08:41:58.444Z,792
2018-05-16T08:42:59.053Z,740
2018-05-16T08:43:59.609Z,800
2018-05-16T08:45:00.187Z,784
2018-05-16T08:46:00.763Z,752
2018-05-16T08:47:01.352Z,804
2018-05-16T08:48:01.940Z,976
2018-05-16T08:49:02.519Z,848
2018-05-16T08:50:03.097Z,808
2018-05-16T08:51:03.675Z,808
2018-05-16T08:52:04.254Z,788
2018-05-16T08:53:04.902Z,780
2018-05-16T08:54:05.415Z,776
2018-05-16T08:55:05.991Z,776
2018-05-16T08:56:06.580Z,780
2018-05-16T08:57:07.158Z,788
2018-05-16T08:58:07.737Z,792
2018-05-16T08:59:08.316Z,804
2018-05-16T09:00:08.894Z,868
2018-05-16T09:01:09.541Z,820
2018-05-16T09:02:10.061Z,840
2018-05-16T09:03:10.638Z,852
2018-05-16T09:04:11.221Z,828
2018-05-16T09:05:11.805Z,800
2018-05-16T09:06:12.382Z,808
2018-05-16T09:07:12.960Z,816
2018-05-16T09:08:13.539Z,804
2018-05-16T09:09:14.122Z,764
2018-05-16T09:10:14.697Z,776
2018-05-16T09:11:15.274Z,792
2018-05-16T09:12:15.853Z,788
2018-05-16T09:13:16.431Z,784
2018-05-16T09:14:17.009Z,792
2018-05-16T09:15:17.586Z,808
2018-05-16T09:16:18.164Z,768
2018-05-16T09:17:18.757Z,744
2018-05-16T09:18:19.320Z,740
2018-05-16T09:19:19.900Z,740
2018-05-16T09:20:20.476Z,744
2018-05-16T09:21:21.054Z,736
2018-05-16T09:22:21.635Z,736
2018-05-16T09:23:22.212Z,732
2018-05-16T09:24:22.791Z,716
2018-05-16T09:25:23.367Z,700
2018-05-16T09:26:23.947Z,692
2018-05-16T09:27:24.527Z,700
2018-05-16T09:28:25.105Z,708
2018-05-16T09:29:25.682Z,684
2018-05-16T09:30:26.261Z,684
2018-05-16T09:31:26.840Z,700
2018-05-16T09:32:27.420Z,688
2018-05-16T09:33:27.997Z,680
2018-05-16T09:34:28.586Z,688
2018-05-16T09:35:29.165Z,716
2018-05-16T09:36:29.754Z,740
2018-05-16T09:37:30.343Z,756
2018-05-16T09:38:30.925Z,764
2018-05-16T09:39:31.502Z,784
2018-05-16T09:40:32.080Z,812
2018-05-16T09:41:32.659Z,824
2018-05-16T09:42:33.238Z,824
2018-05-16T09:43:33.818Z,844
2018-05-16T09:44:34.394Z,852
2018-05-16T09:45:34.976Z,816
2018-05-16T09:46:35.549Z,784
2018-05-16T09:47:36.135Z,772
2018-05-16T09:48:36.716Z,768
2018-05-16T09:49:37.297Z,756
2018-05-16T09:50:37.885Z,756
2018-05-16T09:51:38.464Z,764
2018-05-16T09:52:39.042Z,768
2018-05-16T09:53:39.647Z,768
2018-05-16T09:54:40.214Z,780
2018-05-16T09:55:40.791Z,820
2018-05-16T09:56:41.368Z,860
2018-05-16T09:57:41.945Z,904
2018-05-16T09:58:42.528Z,936
2018-05-16T09:59:43.104Z,964
2018-05-16T10:00:43.683Z,1004
2018-05-16T10:01:44.263Z,1076
2018-05-16T10:02:44.862Z,1016
2018-05-16T10:03:45.427Z,1008
2018-05-16T10:04:46.006Z,1004
2018-05-16T10:05:46.589Z,1000
2018-05-16T10:06:47.178Z,1000
2018-05-16T10:07:47.757Z,1020
2018-05-16T10:08:48.338Z,1040
2018-05-16T10:09:48.960Z,1040
2018-05-16T10:10:49.518Z,992
2018-05-16T10:11:50.107Z,956
2018-05-16T10:12:50.685Z,944
2018-05-16T10:13:51.264Z,964
2018-05-16T10:14:51.846Z,1120
2018-05-16T10:15:52.426Z,988
2018-05-16T10:16:53.093Z,1004
2018-05-16T10:17:53.588Z,1096
2018-05-16T10:18:54.170Z,1008
2018-05-16T10:19:54.749Z,988
2018-05-16T10:20:55.336Z,976
2018-05-16T10:21:55.917Z,972
2018-05-16T10:22:56.496Z,972
2018-05-16T10:23:57.074Z,984
2018-05-16T10:24:57.664Z,1000
2018-05-16T10:25:58.250Z,1028
2018-05-16T10:26:58.826Z,1080
2018-05-16T10:27:59.407Z,1036
2018-05-16T10:28:59.998Z,1024
2018-05-16T10:30:00.583Z,1028
2018-05-16T10:31:01.167Z,1016
2018-05-16T10:32:01.744Z,996
2018-05-16T10:33:02.329Z,1012
2018-05-16T10:34:02.914Z,992
2018-05-16T10:35:03.495Z,1004
2018-05-16T10:36:04.078Z,1024
2018-05-16T10:37:04.657Z,1024
2018-05-16T10:38:05.248Z,1012
2018-05-16T10:39:05.829Z,988
2018-05-16T10:40:06.411Z,988
2018-05-16T10:41:06.999Z,1016
2018-05-16T10:42:07.581Z,1112
2018-05-16T10:43:08.159Z,1108
2018-05-16T10:44:08.740Z,1084
2018-05-16T10:45:09.322Z,1120
2018-05-16T10:46:09.902Z,1100
2018-05-16T10:47:10.482Z,1128
2018-05-16T10:48:11.064Z,1088
2018-05-16T10:49:11.644Z,1056
2018-05-16T10:50:12.228Z,1116
2018-05-16T10:51:12.816Z,1112
2018-05-16T10:52:13.406Z,1152
2018-05-16T10:53:13.977Z,1132
2018-05-16T10:54:14.559Z,1172
2018-05-16T10:55:15.140Z,1156
2018-05-16T10:56:15.732Z,1116
2018-05-16T10:57:16.350Z,1100
2018-05-16T10:58:16.893Z,1060
2018-05-16T10:59:17.475Z,1044
2018-05-16T11:00:18.056Z,976
2018-05-16T11:01:18.635Z,972
2018-05-16T11:02:19.228Z,988
2018-05-16T11:03:19.889Z,988
2018-05-16T11:04:20.399Z,1028
2018-05-16T11:05:20.978Z,1052
2018-05-16T11:06:21.559Z,1036
2018-05-16T11:07:22.142Z,1020
2018-05-16T11:08:22.723Z,1004
2018-05-16T11:09:23.303Z,1000
2018-05-16T11:10:23.909Z,992
2018-05-16T11:11:24.462Z,984
2018-05-16T11:12:25.051Z,1000
2018-05-16T11:13:25.626Z,984
2018-05-16T11:14:26.206Z,1004
2018-05-16T11:15:26.786Z,988
2018-05-16T11:16:27.366Z,976
2018-05-16T11:17:27.949Z,960
2018-05-16T11:18:28.539Z,984
2018-05-16T11:19:29.120Z,1000
2018-05-16T11:20:29.700Z,1072
2018-05-16T11:21:30.296Z,968
2018-05-16T11:22:30.873Z,1072
2018-05-16T11:23:31.454Z,1016
2018-05-16T11:24:32.037Z,1120
2018-05-16T11:25:32.616Z,1108
2018-05-16T11:26:33.196Z,988
2018-05-16T11:27:33.776Z,956
2018-05-16T11:28:34.359Z,932
2018-05-16T11:29:34.947Z,912
2018-05-16T11:30:35.863Z,936
2018-05-16T11:31:36.108Z,880
2018-05-16T11:32:36.686Z,888
2018-05-16T11:33:37.265Z,928
2018-05-16T11:34:37.845Z,928
2018-05-16T11:35:38.427Z,980
2018-05-16T11:36:39.068Z,992
2018-05-16T11:37:39.585Z,900
2018-05-16T11:38:40.169Z,840
2018-05-16T11:39:40.748Z,840
2018-05-16T11:40:41.326Z,880
2018-05-16T11:41:41.921Z,880
2018-05-16T11:42:42.497Z,900
2018-05-16T11:43:43.076Z,920
2018-05-16T11:44:43.656Z,908
2018-05-16T11:45:44.237Z,944
2018-05-16T11:46:44.816Z,988
2018-05-16T11:47:45.397Z,1016
2018-05-16T11:48:46.078Z,1052
2018-05-16T11:49:46.570Z,1064
2018-05-16T11:50:47.150Z,1060
2018-05-16T11:51:47.732Z,1060
2018-05-16T11:52:48.314Z,1036
2018-05-16T11:53:48.894Z,1056
2018-05-16T11:54:49.477Z,1060
2018-05-16T11:55:50.065Z,992
2018-05-16T11:56:50.646Z,1052
2018-05-16T11:57:51.226Z,944
2018-05-16T11:58:51.806Z,996
2018-05-16T11:59:52.399Z,980
2018-05-16T12:00:52.991Z,996
2018-05-16T12:01:53.570Z,964
2018-05-16T12:02:54.160Z,1044
2018-05-16T12:03:54.737Z,1064
2018-05-16T12:04:55.314Z,1056
2018-05-16T12:05:55.900Z,1060
2018-05-16T12:06:56.477Z,1072
2018-05-16T12:07:57.056Z,1048
2018-05-16T12:08:57.636Z,1028
2018-05-16T12:09:58.217Z,1092
2018-05-16T12:10:58.807Z,1124
2018-05-16T12:11:59.391Z,1096
2018-05-16T12:12:59.972Z,1136
2018-05-16T12:14:00.552Z,1104
2018-05-16T12:15:01.226Z,1164
2018-05-16T12:16:01.714Z,1156
2018-05-16T12:17:02.299Z,1236
2018-05-16T12:18:02.893Z,1288
2018-05-16T12:19:03.467Z,1324
2018-05-16T12:20:04.049Z,1312
2018-05-16T12:21:04.628Z,1280
2018-05-16T12:22:05.212Z,1240
2018-05-16T12:23:05.801Z,1220
2018-05-16T12:24:06.385Z,1224
2018-05-16T12:25:06.969Z,1248
2018-05-16T12:26:07.546Z,1212
2018-05-16T12:27:08.133Z,1112
2018-05-16T12:28:08.711Z,1328
2018-05-16T12:29:09.372Z,1348
2018-05-16T12:30:09.877Z,1336
2018-05-16T12:31:10.456Z,1304
2018-05-16T12:32:11.040Z,1276
2018-05-16T12:33:11.618Z,1292
2018-05-16T12:34:12.201Z,1292
2018-05-16T12:35:12.782Z,1192
2018-05-16T12:36:13.362Z,1228
2018-05-16T12:37:13.944Z,1244
2018-05-16T12:38:14.530Z,1132
2018-05-16T12:39:15.119Z,1080
2018-05-16T12:40:15.698Z,1220
2018-05-16T12:41:16.280Z,1068
2018-05-16T12:42:16.861Z,1120
2018-05-16T12:43:17.443Z,1104
2018-05-16T12:44:18.026Z,1020
2018-05-16T12:45:18.607Z,1140
2018-05-16T12:46:19.189Z,1136
2018-05-16T12:47:19.773Z,1344
2018-05-16T12:48:20.355Z,1224
2018-05-16T12:49:20.963Z,1132
2018-05-16T12:50:21.515Z,1200
2018-05-16T12:51:22.096Z,1292
2018-05-16T12:52:22.679Z,1272
2018-05-16T12:53:23.260Z,1180
2018-05-16T12:54:23.842Z,1152
2018-05-16T12:55:24.425Z,1056
2018-05-16T12:56:25.006Z,1036
2018-05-16T12:57:25.589Z,996
2018-05-16T12:58:26.169Z,964
2018-05-16T12:59:26.748Z,916
2018-05-16T13:00:27.339Z,912
2018-05-16T13:01:28.007Z,780
2018-05-16T13:02:28.512Z,760
2018-05-16T13:03:29.091Z,780
2018-05-16T13:04:29.682Z,796
2018-05-16T13:05:30.264Z,764
2018-05-16T13:06:30.844Z,668
2018-05-16T13:07:31.424Z,644
2018-05-16T13:08:32.002Z,684
2018-05-16T13:09:32.582Z,728
2018-05-16T13:10:33.164Z,776
2018-05-16T13:11:33.745Z,820
2018-05-16T13:12:34.324Z,844
2018-05-16T13:13:34.904Z,808
2018-05-16T13:14:35.484Z,812
2018-05-16T13:15:36.067Z,776
2018-05-16T13:16:36.645Z,820
2018-05-16T13:17:37.277Z,880
2018-05-16T13:18:37.803Z,940
2018-05-16T13:19:38.395Z,956
2018-05-16T13:20:38.976Z,916
2018-05-16T13:21:39.625Z,860
2018-05-16T13:22:40.144Z,800
2018-05-16T13:23:40.722Z,752
2018-05-16T13:24:41.313Z,700
2018-05-16T13:25:41.893Z,644
2018-05-16T13:26:42.475Z,600
2018-05-16T13:27:43.054Z,564
2018-05-16T13:28:43.634Z,504
2018-05-16T13:29:44.226Z,436
2018-05-16T13:30:44.818Z,392
2018-05-16T13:31:45.395Z,364
2018-05-16T13:32:45.976Z,364
2018-05-16T13:33:46.557Z,392
2018-05-16T13:34:47.138Z,404
2018-05-16T13:35:47.728Z,424
2018-05-16T13:36:48.315Z,476
2018-05-16T13:37:48.890Z,528
2018-05-16T13:38:49.472Z,540
2018-05-16T13:39:50.052Z,560
2018-05-16T13:40:50.632Z,576
2018-05-16T13:41:51.212Z,600
2018-05-16T13:42:51.792Z,644
2018-05-16T13:43:52.383Z,680
2018-05-16T13:44:52.963Z,672
2018-05-16T13:45:53.543Z,568
2018-05-16T13:46:54.125Z,560
2018-05-16T13:47:54.706Z,560
2018-05-16T13:48:55.286Z,564
2018-05-16T13:49:55.866Z,536
2018-05-16T13:50:56.448Z,500
2018-05-16T13:51:57.028Z,480
2018-05-16T13:52:57.609Z,480
2018-05-16T13:53:58.188Z,464
2018-05-16T13:54:58.769Z,472
2018-05-16T13:55:59.352Z,488
2018-05-16T13:56:59.930Z,504
2018-05-16T13:58:00.512Z,520
2018-05-16T13:59:01.105Z,548
2018-05-16T14:00:01.672Z,456
2018-05-16T14:01:02.252Z,396
2018-05-16T14:02:02.833Z,348
2018-05-16T14:03:03.413Z,324
2018-05-16T14:04:03.993Z,308
2018-05-16T14:05:04.573Z,296
2018-05-16T14:06:05.155Z,276